Flight Track Log - Related Links

Times and Time Zones

All times are in EDT time to prevent confusion due to time zone crossing. See the N836EA flight status page for this flight to view local times or setup timezone preferences in your user account.

Time Position Orientation Groundspeed Altitude Reporting Facility
EDT Latitude Longitude Course Direction KTS MPH feet Rate Location/Type
Thu 07:07:27 PM 29.5264 -98.4586 87° East 119 137 1,800  Level Houston Center
Thu 07:08:10 PM 29.5278 -98.4272 87° East 145 167 2,700 1,689 Climbing Houston Center
Thu 07:09:10 PM 29.5322 -98.3833 83° East 144 166 4,700 1,967 Climbing Houston Center
Thu 07:09:11 PM 29.5322 -98.3836 270° West 146 168 4,700 1,839 Level Houston Center
Thu 07:10:12 PM 29.5444 -98.3356 74° East 147 169 6,600 1,881 Climbing Houston Center
Thu 07:10:18 PM 29.5442 -98.3317 95° East 155 178 6,800 1,742 Climbing Houston Center
Thu 07:11:14 PM 29.5547 -98.2864 75° East 156 180 8,400 1,780 Climbing Houston Center
Thu 07:12:16 PM 29.5678 -98.2286 75° East 173 199 10,300 1,742 Climbing Houston Center
Thu 07:13:18 PM 29.5769 -98.1689 80° East 190 219 12,000 1,887 Climbing Houston Center
Thu 07:14:20 PM 29.5892 -98.1058 77° East 190 219 14,200 2,032 Climbing Houston Center
Thu 07:15:22 PM 29.6031 -98.0450 75° East 197 227 16,200 1,403 Climbing Houston Center
Thu 07:16:24 PM 29.6197 -97.9767 74° East 223 257 17,100 435 Climbing Houston Center
Thu 07:17:26 PM 29.6419 -97.8842 75° East 279 321 17,100 -48 Level Houston Center
Thu 07:18:29 PM 29.6628 -97.7956 75° East 296 341 17,000 -48 Descending Houston Center
Thu 07:19:31 PM 29.6822 -97.7025 76° East 299 344 17,000  Level Houston Center
Thu 07:20:33 PM 29.6747 -97.6075 95° East 297 342 17,000  Level Houston Center
Thu 07:21:35 PM 29.6703 -97.5128 93° East 298 343 17,000  Level Houston Center
Thu 07:22:37 PM 29.6656 -97.4000 93° East 296 341 17,000  Level Houston Center
Thu 07:23:39 PM 29.6608 -97.3064 93° East 294 338 17,000 -48 Level Houston Center
Thu 07:24:41 PM 29.6564 -97.2128 93° East 293 337 16,900 -48 Descending Houston Center
Thu 07:25:43 PM 29.6744 -97.1267 76° East 297 342 16,900  Level Houston Center
Thu 07:26:45 PM 29.7389 -97.0703 37° Northeast 291 335 16,900  Level Houston Center
Thu 07:27:47 PM 29.8025 -97.0108 39° Northeast 292 336 16,900 -435 Level Houston Center
Thu 07:28:49 PM 29.8642 -96.9517 40° Northeast 288 331 16,000 -1,404 Descending Houston Center
Thu 07:29:21 PM 29.9072 -96.9108 39° Northeast 294 338 14,700 -2,419 Descending Houston Center
Thu 07:29:51 PM 29.9439 -96.8783 38° Northeast 303 349 13,500 -1,672 Descending Houston Center
Thu 07:30:22 PM 29.9753 -96.8458 42° Northeast 307 353 13,000 -677 Descending Houston Center
Thu 07:30:53 PM 30.0064 -96.8192 37° Northeast 294 338 12,800 -873 Descending Houston Center
Thu 07:31:17 PM 30.0281 -96.7994 38° Northeast 279 321 12,200 -1,839 Descending Houston Center
Thu 07:31:55 PM 30.0653 -96.7639 40° Northeast 276 318 10,900 -2,066 Descending Houston Center
Thu 07:32:18 PM 30.0922 -96.7369 41° Northeast 275 316 10,100 -2,032 Descending Houston Center
Thu 07:32:57 PM 30.1319 -96.6994 39° Northeast 286 329 8,800 -1,967 Descending Houston Center
Thu 07:33:19 PM 30.1567 -96.6772 38° Northeast 286 329 8,100 -1,935 Descending Houston Center
Thu 07:33:59 PM 30.1933 -96.6417 40° Northeast 285 328 6,800 -1,869 Descending Houston Center
Thu 07:34:20 PM 30.2131 -96.6228 40° Northeast 277 319 6,200 -1,935 Descending Houston Center
Thu 07:35:01 PM 30.2506 -96.5872 39° Northeast 270 311 4,800 -2,066 Descending Houston Center
Thu 07:35:21 PM 30.2717 -96.5681 38° Northeast 259 298 4,100 -1,742 Descending Houston Center
Thu 07:36:03 PM 30.3050 -96.5350 41° Northeast 259 298 3,000 -896 Descending Houston Center
Thu 07:36:28 PM 30.3297 -96.5111 40° Northeast 232 267 3,100  Climbing Houston Center
Thu 07:37:05 PM 30.3547 -96.4881 39° Northeast 241 277 3,000  Descending Houston Center
Thu 07:37:30 PM 30.3706 -96.4728 40° Northeast 170 196 3,100  Climbing Houston Center
Thu 07:38:07 PM 30.3875 -96.4564 40° Northeast 172 198 3,000  Descending Houston Center
Thu 07:38:25 PM 30.3997 -96.4453 38° Northeast 121 139 3,100 97 Climbing Houston Center
Thu 07:39:09 PM 30.4022 -96.4128 85° East 158 182 3,100  Level Houston Center
Thu 07:39:26 PM 30.3922 -96.4050 146° Southeast 153 176 3,100 -97 Level Houston Center
Thu 07:40:11 PM 30.3672 -96.3986 168° South 157 181 3,000 -133 Descending Houston Center

Login

Don't have an account? Register now (free) for customized features, flight alerts, and more!